Time;durP1;ratioP1;P1;durP2;ratioP2;P2;SDS_P1;SDS_P2;PMS_P1;PMS_P2;Temp;Humidity;BMP_temperature;BMP_pressure;BME280_temperature;BME280_humidity;BME280_pressure;Samples;Min_cycle;Max_cycle;Signal;HPM_P1;HPM_P2
2022/03/08 00:01:17;;;;;;;15.95;12.95;;;;;;;8.68;67.78;101027.59;5016813;27;101950;-49
2022/03/08 00:03:44;;;;;;;15.25;13.40;;;;;;;8.67;68.34;101029.47;5033249;27;102245;-49
2022/03/08 00:06:11;;;;;;;15.43;12.63;;;;;;;8.67;68.58;101026.75;5032795;27;103747;-50
2022/03/08 00:08:38;;;;;;;14.35;12.70;;;;;;;8.68;68.66;101025.69;5033267;27;101961;-49
2022/03/08 00:11:06;;;;;;;14.07;11.65;;;;;;;8.68;68.43;101024.88;5014031;27;102454;-49
2022/03/08 00:13:33;;;;;;;14.15;12.48;;;;;;;8.67;68.48;101032.19;5018997;28;103611;-50
2022/03/08 00:15:59;;;;;;;14.45;12.13;;;;;;;8.67;68.02;101021.34;5024118;27;103990;-50
2022/03/08 00:18:25;;;;;;;13.30;11.90;;;;;;;8.67;67.68;101018.63;5013193;28;102623;-49
2022/03/08 00:20:53;;;;;;;14.15;12.65;;;;;;;8.66;68.24;101039.50;5012247;28;102234;-49
2022/03/08 00:23:19;;;;;;;14.88;12.88;;;;;;;8.66;67.91;101033.28;5015279;27;102184;-49
2022/03/08 00:25:46;;;;;;;13.75;11.98;;;;;;;8.66;68.42;101030.56;5013663;27;104262;-49
2022/03/08 00:28:15;;;;;;;14.02;12.55;;;;;;;8.67;68.64;101029.47;5023470;27;102265;-50
2022/03/08 00:30:41;;;;;;;15.20;12.43;;;;;;;8.67;67.79;101034.91;5051998;27;102310;-49
2022/03/08 00:33:08;;;;;;;14.73;12.05;;;;;;;8.66;68.60;101033.28;5051573;27;102377;-49
2022/03/08 00:35:35;;;;;;;14.32;12.40;;;;;;;8.66;68.56;101027.84;5036512;27;103750;-49
2022/03/08 00:38:02;;;;;;;14.50;12.48;;;;;;;8.66;67.77;101022.41;5031689;27;102320;-49
2022/03/08 00:40:28;;;;;;;15.07;12.68;;;;;;;8.66;68.44;101023.22;5013876;27;102238;-49
2022/03/08 00:42:55;;;;;;;13.82;12.32;;;;;;;8.66;68.35;101022.41;5013727;28;102439;-49
2022/03/08 00:45:23;;;;;;;15.02;12.52;;;;;;;8.65;68.16;101018.03;5013356;27;103821;-49
2022/03/08 00:47:50;;;;;;;14.75;12.77;;;;;;;8.66;67.98;101017.00;5014161;27;103503;-50
2022/03/08 00:50:20;;;;;;;15.50;12.68;;;;;;;8.66;67.99;101014.28;5011366;28;102441;-49
2022/03/08 00:52:49;;;;;;;15.88;12.77;;;;;;;8.65;68.46;101005.31;5013413;27;102033;-49
2022/03/08 00:55:17;;;;;;;14.15;12.55;;;;;;;8.65;68.67;101010.75;5012132;28;104013;-49
2022/03/08 00:57:43;;;;;;;15.35;12.30;;;;;;;8.65;67.67;101009.91;5025420;27;102509;-51
2022/03/08 01:00:13;;;;;;;15.40;12.63;;;;;;;8.65;68.32;101007.19;5030169;27;102276;-49
2022/03/08 01:02:42;;;;;;;15.60;12.82;;;;;;;8.66;67.80;101011.56;5013494;28;102479;-50
2022/03/08 01:05:09;;;;;;;15.15;12.50;;;;;;;8.66;68.22;101011.56;5025009;27;103983;-49
2022/03/08 01:07:35;;;;;;;15.38;12.55;;;;;;;8.64;68.46;101003.66;5032602;27;102438;-50
2022/03/08 01:10:08;;;;;;;13.50;11.90;;;;;;;8.65;67.94;101010.75;5013735;27;101950;-49
2022/03/08 01:12:35;;;;;;;15.00;12.38;;;;;;;8.65;68.40;101004.47;5021815;27;102215;-49
2022/03/08 01:15:04;;;;;;;14.40;12.30;;;;;;;8.65;67.61;101004.47;5027263;27;103899;-50
2022/03/08 01:17:32;;;;;;;14.05;12.20;;;;;;;8.65;68.15;101004.47;5031724;27;102302;-50
2022/03/08 01:20:00;;;;;;;15.05;12.43;;;;;;;8.64;67.71;100997.41;5031852;27;102333;-49
2022/03/08 01:22:27;;;;;;;15.35;12.85;;;;;;;8.65;67.81;100993.63;5032863;28;102553;-49
2022/03/08 01:24:54;;;;;;;14.38;11.90;;;;;;;8.65;68.30;100996.34;5029829;27;103964;-49
2022/03/08 01:27:21;;;;;;;14.25;12.50;;;;;;;8.64;67.97;101000.13;5031556;27;102320;-49
2022/03/08 01:29:48;;;;;;;14.90;12.90;;;;;;;8.65;68.16;100999.06;5032154;27;102266;-49
2022/03/08 01:32:15;;;;;;;14.38;12.30;;;;;;;8.65;68.22;101004.47;5030887;27;102259;-49
2022/03/08 01:34:41;;;;;;;14.38;12.35;;;;;;;8.65;68.49;100999.06;5030261;27;104008;-49
2022/03/08 01:37:10;;;;;;;14.40;11.95;;;;;;;8.65;68.55;100999.06;5031671;27;101944;-49
2022/03/08 01:39:38;;;;;;;14.70;12.52;;;;;;;8.64;67.96;101000.13;5029275;27;101868;-49
2022/03/08 01:42:08;;;;;;;14.10;12.35;;;;;;;8.65;68.12;100990.91;5041944;27;102284;-49
2022/03/08 01:44:35;;;;;;;12.57;11.27;;;;;;;8.65;68.10;100990.91;5024253;28;104161;-49
2022/03/08 01:47:02;;;;;;;14.75;12.18;;;;;;;8.65;67.99;100993.63;5011963;27;102537;-49
2022/03/08 01:49:29;;;;;;;14.73;12.93;;;;;;;8.65;68.01;100990.91;5011592;27;102122;-49
2022/03/08 01:51:56;;;;;;;14.80;11.70;;;;;;;8.65;68.48;100993.63;5030390;27;102094;-49
2022/03/08 01:54:24;;;;;;;14.30;11.82;;;;;;;8.64;68.09;100998.22;5029786;27;104006;-49
2022/03/08 01:56:50;;;;;;;14.00;11.68;;;;;;;8.65;67.46;100996.34;5012667;27;102002;-49
2022/03/08 01:59:17;;;;;;;12.90;11.25;;;;;;;8.64;68.17;101000.94;5010983;28;102427;-49
2022/03/08 02:01:43;;;;;;;12.90;11.50;;;;;;;8.65;68.50;100993.63;5012137;28;102125;-49
2022/03/08 02:04:12;;;;;;;13.40;11.55;;;;;;;8.64;68.45;100997.41;5011016;28;103907;-49
2022/03/08 02:06:39;;;;;;;;;;;;;;;8.65;68.46;100996.34;5011667;27;102493;-49
2022/03/08 02:09:06;;;;;;;12.88;11.30;;;;;;;8.64;68.25;100997.41;5013421;27;102014;-49
2022/03/08 02:11:35;;;;;;;13.77;11.57;;;;;;;8.64;68.19;100992.00;5019512;27;102102;-50
2022/03/08 02:14:02;;;;;;;15.75;12.48;;;;;;;8.65;68.58;100994.47;5010885;28;103734;-49
2022/03/08 02:16:29;;;;;;;14.93;11.75;;;;;;;8.63;67.65;100990.34;5029796;27;102435;-50
2022/03/08 02:18:56;;;;;;;13.57;11.90;;;;;;;8.64;68.57;100992.00;5027545;27;102717;-49
2022/03/08 02:21:25;;;;;;;13.68;11.18;;;;;;;8.64;68.17;100987.38;5020596;27;102437;-50
2022/03/08 02:23:52;;;;;;;14.63;12.30;;;;;;;8.65;68.04;100988.19;5030435;27;103932;-49
2022/03/08 02:26:20;;;;;;;13.65;11.48;;;;;;;8.64;68.15;100992.81;5030865;27;102564;-49
2022/03/08 02:28:47;;;;;;;13.27;11.83;;;;;;;8.65;68.35;100999.06;5030918;27;102281;-49
2022/03/08 02:31:17;;;;;;;13.65;11.98;;;;;;;8.64;68.17;100995.53;5031175;27;102305;-49
2022/03/08 02:33:44;;;;;;;14.48;11.63;;;;;;;8.65;67.72;100999.91;5030628;27;103935;-50
2022/03/08 02:36:11;;;;;;;13.43;11.27;;;;;;;8.64;67.77;100994.69;5031401;27;101840;-49
2022/03/08 02:38:40;;;;;;;15.60;11.85;;;;;;;8.65;67.93;100999.06;5032044;27;102260;-49
2022/03/08 02:41:07;;;;;;;14.30;11.45;;;;;;;8.65;68.19;101001.75;5033693;27;102197;-50
2022/03/08 02:43:34;;;;;;;13.45;11.57;;;;;;;8.63;67.90;100998.50;5013219;28;104012;-49
2022/03/08 02:46:00;;;;;;;14.43;11.82;;;;;;;8.65;68.41;101001.75;5014337;28;101962;-49
2022/03/08 02:48:28;;;;;;;13.13;11.60;;;;;;;8.64;68.17;100997.41;5014156;28;101961;-49
2022/03/08 02:50:55;;;;;;;12.18;10.82;;;;;;;8.64;68.60;100994.69;5015404;28;102149;-49
2022/03/08 02:53:23;;;;;;;13.90;11.30;;;;;;;8.64;68.18;101005.56;5019668;27;103888;-50
2022/03/08 02:55:51;;;;;;;13.93;11.77;;;;;;;8.64;68.48;101003.66;5033662;27;102070;-50
2022/03/08 02:58:18;;;;;;;14.20;11.77;;;;;;;8.65;67.98;101009.91;5014060;28;102214;-49
2022/03/08 03:00:45;;;;;;;13.32;11.93;;;;;;;8.65;68.16;100999.06;5030165;28;101999;-49
2022/03/08 03:03:11;;;;;;;12.35;10.88;;;;;;;8.66;68.18;101003.44;5031138;27;103955;-49
2022/03/08 03:05:38;;;;;;;13.52;11.45;;;;;;;8.65;68.59;101004.47;5014061;28;102219;-49
2022/03/08 03:08:22;;;;;;;12.77;11.45;;;;;;;8.65;68.12;101001.75;5018251;27;102395;-49
2022/03/08 03:10:52;;;;;;;14.27;11.73;;;;;;;8.65;67.73;100996.34;5019872;27;102533;-49
2022/03/08 03:13:19;;;;;;;15.40;11.77;;;;;;;8.65;68.34;100999.06;5022274;28;103959;-49
2022/03/08 03:15:46;;;;;;;13.35;11.77;;;;;;;8.65;68.61;101008.03;5033706;27;102454;-49
2022/03/08 03:18:13;;;;;;;14.48;11.80;;;;;;;8.65;68.65;100996.34;5029827;27;102122;-49
2022/03/08 03:20:40;;;;;;;14.88;11.02;;;;;;;8.65;67.97;101007.19;5020983;28;102412;-49
2022/03/08 03:23:07;;;;;;;14.65;12.13;;;;;;;8.65;68.31;101007.19;5029664;27;102963;-49
2022/03/08 03:25:34;;;;;;;12.82;11.27;;;;;;;8.65;67.79;101005.31;5020889;27;102752;-49
2022/03/08 03:28:03;;;;;;;14.00;11.63;;;;;;;8.65;68.38;101007.19;5032606;27;102243;-49
2022/03/08 03:30:30;;;;;;;13.35;11.60;;;;;;;8.66;67.92;101017.00;5051301;27;102204;-49
2022/03/08 03:32:56;;;;;;;14.07;12.15;;;;;;;8.64;68.55;101008.28;5044316;27;103934;-49
2022/03/08 03:35:24;;;;;;;12.75;11.40;;;;;;;8.65;68.06;101005.31;5043340;27;102011;-49
2022/03/08 03:37:50;;;;;;;14.25;11.48;;;;;;;8.64;68.20;101009.09;5033171;27;102373;-48
2022/03/08 03:40:17;;;;;;;14.50;11.93;;;;;;;8.65;68.02;101010.75;5034962;27;102555;-49
2022/03/08 03:42:43;;;;;;;12.10;10.80;;;;;;;8.66;68.42;101011.56;5050399;27;103919;-49
2022/03/08 03:45:12;;;;;;;12.23;10.95;;;;;;;8.65;68.40;100999.06;5033010;27;102346;-49
2022/03/08 03:47:40;;;;;;;12.63;11.32;;;;;;;8.65;67.74;101015.31;5031734;27;101948;-49
2022/03/08 03:50:08;;;;;;;12.95;11.63;;;;;;;8.65;68.59;101012.63;5049553;27;102626;-49
2022/03/08 03:52:35;;;;;;;13.35;11.23;;;;;;;8.66;67.97;101008.84;5055020;27;103982;-49
2022/03/08 03:55:05;;;;;;;13.70;11.57;;;;;;;8.65;67.96;101015.31;5055965;27;101951;-49
2022/03/08 03:57:32;;;;;;;14.15;11.18;;;;;;;8.64;68.00;101003.66;5033047;27;102483;-53
2022/03/08 03:59:58;;;;;;;13.30;11.35;;;;;;;8.66;67.72;101011.56;5027142;27;102726;-49
2022/03/08 04:02:26;;;;;;;12.90;11.55;;;;;;;8.65;67.81;101010.75;5014720;28;104033;-49
2022/03/08 04:04:53;;;;;;;13.98;12.00;;;;;;;8.65;68.02;101010.75;5015193;27;102348;-49
2022/03/08 04:07:19;;;;;;;12.80;11.40;;;;;;;8.65;68.05;101015.31;5032089;27;102141;-49
2022/03/08 04:09:46;;;;;;;12.60;11.20;;;;;;;8.64;67.64;101009.09;5034976;27;102526;-49
2022/03/08 04:12:13;;;;;;;12.57;11.27;;;;;;;8.64;68.14;101008.28;5036087;27;104210;-49
2022/03/08 04:14:39;;;;;;;13.75;12.18;;;;;;;8.65;68.17;100993.63;5022398;27;103780;-49
2022/03/08 04:17:07;;;;;;;12.95;10.93;;;;;;;8.65;68.10;101004.47;5028157;27;102496;-49
2022/03/08 04:19:35;;;;;;;13.70;11.52;;;;;;;8.65;68.22;100999.06;5034391;27;102503;-49
2022/03/08 04:22:02;;;;;;;13.93;11.48;;;;;;;8.65;67.69;100999.06;5032482;27;103398;-49
2022/03/08 04:24:30;;;;;;;14.13;11.88;;;;;;;8.65;68.15;101009.91;5017570;27;104683;-50
2022/03/08 04:26:56;;;;;;;14.38;11.48;;;;;;;8.65;68.06;101016.19;5023750;27;102553;-49
2022/03/08 04:29:23;;;;;;;13.02;11.48;;;;;;;8.66;68.56;101014.28;5025546;27;102206;-49
2022/03/08 04:31:50;;;;;;;13.60;12.15;;;;;;;8.66;68.47;101017.00;5020818;27;103935;-49
2022/03/08 04:34:16;;;;;;;12.50;10.82;;;;;;;8.66;68.15;101011.56;5022977;27;102059;-49
2022/03/08 04:36:44;;;;;;;14.15;11.90;;;;;;;8.67;68.05;101024.06;5040260;27;102780;-49
2022/03/08 04:39:11;;;;;;;14.02;12.15;;;;;;;8.65;68.35;101013.47;5033609;27;102167;-49
2022/03/08 04:41:38;;;;;;;13.45;11.88;;;;;;;8.66;68.03;101027.84;5032189;28;103884;-49
2022/03/08 04:44:05;;;;;;;14.82;11.85;;;;;;;8.67;68.61;101021.34;5033321;27;102014;-49
2022/03/08 04:46:32;;;;;;;13.77;11.82;;;;;;;8.66;68.44;101025.13;5032679;28;102289;-49
2022/03/08 04:48:58;;;;;;;14.50;12.07;;;;;;;8.65;67.69;101020.75;5033359;27;102289;-50
2022/03/08 04:51:25;;;;;;;13.05;11.65;;;;;;;8.65;67.93;101021.59;5032640;27;104289;-50
2022/03/08 04:53:53;;;;;;;13.27;11.88;;;;;;;8.65;68.55;101015.31;5033153;28;102319;-49
2022/03/08 04:56:19;;;;;;;13.48;12.05;;;;;;;8.66;68.47;101025.94;5032068;28;102283;-49
2022/03/08 04:58:47;;;;;;;14.88;12.68;;;;;;;8.65;68.54;101018.88;5033896;27;102153;-51
2022/03/08 05:01:14;;;;;;;14.18;12.77;;;;;;;8.65;68.58;101020.75;5031878;27;103917;-49
2022/03/08 05:03:41;;;;;;;13.70;12.20;;;;;;;8.66;67.98;101017.00;5032747;27;102920;-49
2022/03/08 05:06:09;;;;;;;14.30;12.30;;;;;;;8.65;67.72;101016.19;5033623;27;102064;-49
2022/03/08 05:08:36;;;;;;;14.88;13.25;;;;;;;8.65;68.18;101015.31;5033886;27;102175;-49
2022/03/08 05:11:04;;;;;;;15.00;12.50;;;;;;;8.64;68.50;101014.50;5033366;28;104017;-49
2022/03/08 05:13:31;;;;;;;13.80;12.30;;;;;;;8.65;68.49;101013.47;5032930;27;101909;-49
2022/03/08 05:15:59;;;;;;;14.82;12.38;;;;;;;8.64;68.76;101010.97;5032791;28;101853;-49
2022/03/08 05:18:25;;;;;;;14.57;12.90;;;;;;;8.65;68.57;101008.03;5033710;27;102616;-49
2022/03/08 05:20:52;;;;;;;14.35;12.77;;;;;;;8.65;67.72;100999.91;5032242;27;103917;-49
2022/03/08 05:23:18;;;;;;;14.88;12.73;;;;;;;8.65;68.16;101009.91;5036802;27;102380;-49
2022/03/08 05:25:46;;;;;;;15.80;13.07;;;;;;;8.65;68.11;101001.75;5037826;27;102443;-49
2022/03/08 05:28:14;;;;;;;16.08;13.85;;;;;;;8.65;67.88;100997.19;5033507;27;102707;-50
2022/03/08 05:30:41;;;;;;;13.90;12.00;;;;;;;8.66;68.28;101003.44;5031366;27;103937;-49
2022/03/08 05:33:08;;;;;;;14.30;12.35;;;;;;;8.65;68.04;101018.88;5032319;27;102391;-49
2022/03/08 05:35:35;;;;;;;13.55;12.15;;;;;;;8.66;67.99;101022.41;5031694;27;102537;-49
2022/03/08 05:38:02;;;;;;;15.13;13.38;;;;;;;8.65;68.57;101026.19;5032487;27;102129;-49
2022/03/08 05:40:28;;;;;;;15.55;13.20;;;;;;;8.65;68.60;101026.19;5031369;27;103959;-49
2022/03/08 05:42:55;;;;;;;16.35;12.27;;;;;;;8.65;67.74;101037.03;5032069;27;101791;-49
2022/03/08 05:45:23;;;;;;;13.98;12.15;;;;;;;8.65;68.11;101031.59;5031396;27;101894;-49
2022/03/08 05:47:50;;;;;;;17.05;12.80;;;;;;;8.65;68.05;101031.59;5032580;27;102268;-49
2022/03/08 05:50:16;;;;;;;16.45;12.98;;;;;;;8.66;68.49;101033.28;5031018;27;103804;-49
2022/03/08 05:52:43;;;;;;;16.77;13.43;;;;;;;8.65;68.37;101037.03;5032206;27;102330;-49
2022/03/08 05:55:10;;;;;;;14.23;12.73;;;;;;;8.65;68.54;101043.31;5031543;28;101941;-49
2022/03/08 05:57:36;;;;;;;14.90;13.18;;;;;;;8.65;68.21;101037.03;5032370;27;102294;-49
2022/03/08 06:00:05;;;;;;;14.95;13.02;;;;;;;8.64;68.16;101041.66;5031031;27;104030;-49
2022/03/08 06:02:33;;;;;;;14.70;13.20;;;;;;;8.65;68.08;101047.88;5030359;27;102440;-49
2022/03/08 06:04:59;;;;;;;15.38;13.60;;;;;;;8.65;68.55;101042.47;5030667;27;102288;-49
2022/03/08 06:07:26;;;;;;;15.52;12.95;;;;;;;8.64;67.74;101043.53;5032593;27;102424;-49
2022/03/08 06:09:53;;;;;;;15.00;13.38;;;;;;;8.64;68.18;101040.81;5030965;27;103954;-49
2022/03/08 06:12:19;;;;;;;15.38;13.65;;;;;;;8.65;67.93;101047.88;5030589;27;101893;-49
2022/03/08 06:14:46;;;;;;;14.88;13.25;;;;;;;8.65;67.99;101043.31;5031046;27;102450;-49
2022/03/08 06:17:34;;;;;;;14.60;12.82;;;;;;;8.65;67.66;101043.31;5032015;27;102615;-50
2022/03/08 06:20:02;;;;;;;15.45;13.35;;;;;;;8.65;68.07;101042.47;5031329;28;103889;-49
2022/03/08 06:22:29;;;;;;;14.55;13.05;;;;;;;8.64;68.51;101041.66;5031053;27;102499;-49
2022/03/08 06:24:56;;;;;;;14.98;13.38;;;;;;;8.65;67.66;101042.47;5031725;28;101901;-49
2022/03/08 06:27:23;;;;;;;14.25;12.75;;;;;;;8.65;68.01;101047.88;5027338;27;102246;-49
2022/03/08 06:29:51;;;;;;;16.92;13.40;;;;;;;8.65;68.19;101053.31;5026495;27;104102;-49
2022/03/08 06:32:19;;;;;;;15.13;13.55;;;;;;;8.65;67.61;101054.16;5034238;27;104080;-49
2022/03/08 06:34:47;;;;;;;16.60;13.77;;;;;;;8.66;67.74;101054.97;5021972;27;103256;-49
2022/03/08 06:37:13;;;;;;;15.52;13.10;;;;;;;8.66;68.20;101054.97;5025145;27;102834;-49
2022/03/08 06:39:40;;;;;;;17.50;13.50;;;;;;;8.66;67.77;101055.78;5021571;27;104110;-50
2022/03/08 06:42:07;;;;;;;15.18;13.50;;;;;;;8.67;68.09;101051.19;5036003;27;102783;-49
2022/03/08 06:44:35;;;;;;;15.15;13.15;;;;;;;8.68;68.53;101062.84;5027142;27;103792;-49
2022/03/08 06:47:02;;;;;;;16.08;14.00;;;;;;;8.68;68.65;101063.66;5011872;28;102060;-49
2022/03/08 06:49:28;;;;;;;17.85;13.95;;;;;;;8.68;68.23;101058.25;5010780;28;104084;-49
2022/03/08 06:51:56;;;;;;;18.10;14.90;;;;;;;8.69;68.11;101059.91;5011116;28;101851;-49
2022/03/08 06:54:23;;;;;;;17.60;14.27;;;;;;;8.69;68.05;101054.47;5010731;28;101937;-50
2022/03/08 06:56:50;;;;;;;15.90;13.88;;;;;;;8.70;67.94;101055.28;5012006;28;102453;-49
2022/03/08 06:59:16;;;;;;;15.70;13.98;;;;;;;8.70;67.87;101061.53;5010561;28;102851;-49
2022/03/08 07:01:42;;;;;;;16.40;14.40;;;;;;;8.70;68.32;101053.41;5020751;28;102008;-50
2022/03/08 07:04:09;;;;;;;17.45;14.60;;;;;;;8.70;68.22;101056.13;5030477;28;102368;-49
2022/03/08 07:06:36;;;;;;;15.15;13.55;;;;;;;8.70;67.96;101053.41;5031999;27;102110;-49
2022/03/08 07:09:05;;;;;;;16.13;14.23;;;;;;;8.71;68.68;101052.31;5028316;27;104005;-49
2022/03/08 07:11:35;;;;;;;15.57;13.98;;;;;;;8.72;68.44;101055.84;5028146;28;102220;-49
2022/03/08 07:14:01;;;;;;;17.25;14.07;;;;;;;8.71;68.46;101046.91;5030339;27;102473;-49
2022/03/08 07:16:29;;;;;;;15.65;13.95;;;;;;;8.72;68.55;101050.44;5030300;28;102526;-52
2022/03/08 07:18:55;;;;;;;16.08;13.27;;;;;;;8.72;68.11;101053.94;5030112;28;104082;-49
2022/03/08 07:21:22;;;;;;;16.63;14.00;;;;;;;8.72;68.81;101043.09;5030356;28;103049;-49
2022/03/08 07:23:49;;;;;;;15.73;13.38;;;;;;;8.73;68.40;101054.78;5030455;27;102337;-50
2022/03/08 07:26:17;;;;;;;15.85;13.73;;;;;;;8.73;67.93;101050.19;5035195;27;102394;-49
2022/03/08 07:28:44;;;;;;;16.83;13.63;;;;;;;8.72;68.26;101048.53;5033448;27;103710;-49
2022/03/08 07:31:12;;;;;;;15.73;13.57;;;;;;;8.72;68.44;101051.25;5034359;27;102001;-50
2022/03/08 07:33:41;;;;;;;11.52;10.10;;;;;;;8.72;68.13;101040.38;5033798;28;102386;-49
2022/03/08 07:36:08;;;;;;;16.77;14.55;;;;;;;8.74;68.18;101048.28;5034804;27;102568;-49
2022/03/08 07:38:35;;;;;;;15.77;14.13;;;;;;;8.74;68.50;101040.16;5032616;27;103627;-50
2022/03/08 07:41:03;;;;;;;16.40;14.27;;;;;;;8.75;68.19;101042.59;5034469;27;101932;-49
2022/03/08 07:43:32;;;;;;;16.83;14.27;;;;;;;8.74;67.91;101043.69;5040815;27;102512;-49
2022/03/08 07:45:59;;;;;;;14.85;13.25;;;;;;;8.74;68.51;101043.69;5041285;27;102017;-49
2022/03/08 07:48:26;;;;;;;18.75;14.98;;;;;;;8.74;68.76;101051.00;5033018;27;103965;-49
2022/03/08 07:50:53;;;;;;;19.70;14.45;;;;;;;8.73;68.15;101046.63;5032360;27;102076;-50
2022/03/08 07:53:20;;;;;;;16.92;12.73;;;;;;;8.68;67.28;101046.56;5033774;27;103485;-50
2022/03/08 07:55:47;;;;;;;17.90;14.02;;;;;;;8.61;67.46;101052.19;5037936;27;102717;-50
2022/03/08 07:58:15;;;;;;;39.85;14.30;;;;;;;8.54;67.45;101046.09;5032763;27;103686;-50
2022/03/08 08:00:43;;;;;;;36.00;15.20;;;;;;;8.61;66.86;101052.19;5031700;27;102004;-50
2022/03/08 08:03:10;;;;;;;32.60;15.55;;;;;;;8.63;67.84;101044.63;5036527;27;102143;-50
2022/03/08 08:05:38;;;;;;;29.23;15.70;;;;;;;8.60;67.35;101040.50;5046578;27;102588;-50
2022/03/08 08:08:10;;;;;;;30.90;14.70;;;;;;;8.61;67.10;101044.84;5053218;27;104265;-50
2022/03/08 08:10:37;;;;;;;26.13;13.77;;;;;;;8.62;67.62;101043.81;5015494;27;102518;-50
2022/03/08 08:13:09;;;;;;;23.20;14.35;;;;;;;8.60;66.72;101045.94;5032355;27;102550;-50
2022/03/08 08:15:39;;;;;;;25.50;15.00;;;;;;;8.60;66.83;101045.94;5033836;27;101917;-50
2022/03/08 08:18:08;;;;;;;;;;;;;;;8.62;67.09;101048.41;5038808;27;104875;-50
2022/03/08 08:20:35;;;;;;;23.92;13.63;;;;;;;8.62;67.80;101045.69;5033350;28;102343;-50
2022/03/08 08:23:03;;;;;;;18.38;13.57;;;;;;;8.61;67.15;101042.13;5032928;27;102467;-50
2022/03/08 08:25:30;;;;;;;19.52;13.45;;;;;;;8.62;67.02;101048.41;5033776;27;102363;-50
2022/03/08 08:27:57;;;;;;;21.55;14.32;;;;;;;8.62;67.82;101048.41;5032367;27;104106;-50
2022/03/08 08:30:25;;;;;;;19.80;13.93;;;;;;;8.63;67.21;101039.19;5033441;27;102129;-50
2022/03/08 08:32:52;;;;;;;20.50;14.05;;;;;;;8.62;67.30;101042.97;5032665;27;102304;-50
2022/03/08 08:35:20;;;;;;;17.88;13.80;;;;;;;8.62;67.53;101045.69;5032827;27;102095;-50
2022/03/08 08:37:47;;;;;;;21.27;13.90;;;;;;;8.62;67.72;101042.97;5031793;27;103695;-50
2022/03/08 08:40:14;;;;;;;18.48;13.07;;;;;;;8.62;67.71;101043.81;5038271;27;102023;-50
2022/03/08 08:42:41;;;;;;;18.38;12.23;;;;;;;8.62;67.40;101042.97;5031941;27;101874;-50
2022/03/08 08:45:09;;;;;;;21.20;14.85;;;;;;;8.63;67.58;101044.63;5041771;27;102395;-49
2022/03/08 08:47:37;;;;;;;18.73;12.73;;;;;;;8.63;67.82;101044.63;5032721;27;103881;-50
2022/03/08 08:50:05;;;;;;;21.00;13.75;;;;;;;8.62;67.72;101042.97;5033034;27;102520;-50
2022/03/08 08:52:34;;;;;;;20.45;13.98;;;;;;;8.62;67.39;101032.13;5032224;28;102582;-50
2022/03/08 08:55:01;;;;;;;19.73;12.73;;;;;;;8.64;67.25;101040.81;5033417;27;102637;-50
2022/03/08 08:57:28;;;;;;;18.08;13.15;;;;;;;8.62;67.68;101034.84;5031831;27;104074;-50
2022/03/08 08:59:56;;;;;;;17.00;13.13;;;;;;;8.63;67.49;101034.59;5030915;27;102338;-50
2022/03/08 09:02:23;;;;;;;18.30;12.57;;;;;;;8.63;67.03;101042.72;5031744;27;102072;-50
2022/03/08 09:04:50;;;;;;;14.82;12.13;;;;;;;8.64;67.64;101035.41;5022664;28;102500;-50
2022/03/08 09:07:16;;;;;;;15.85;12.95;;;;;;;8.63;67.07;101034.59;5031051;27;103864;-50
2022/03/08 09:09:47;;;;;;;17.90;12.13;;;;;;;8.64;67.71;101038.94;5036438;27;102218;-49
2022/03/08 09:12:13;;;;;;;15.07;12.13;;;;;;;8.65;68.10;101032.47;5031854;27;101988;-52
2022/03/08 09:14:41;;;;;;;15.00;12.52;;;;;;;8.66;67.22;101035.97;5036583;27;102181;-50
2022/03/08 09:17:08;;;;;;;13.80;12.30;;;;;;;8.66;68.06;101031.38;5028168;27;103975;-49
2022/03/08 09:19:35;;;;;;;20.00;11.77;;;;;;;8.67;68.07;101043.03;5033647;27;102146;-50
2022/03/08 09:22:02;;;;;;;16.15;12.00;;;;;;;8.68;67.67;101030.28;5030767;27;101913;-49
2022/03/08 09:24:29;;;;;;;15.50;11.40;;;;;;;8.68;67.93;101031.09;5030742;27;102756;-50
2022/03/08 09:26:57;;;;;;;16.90;11.60;;;;;;;8.68;67.14;101025.69;5030517;27;103994;-49
2022/03/08 09:29:23;;;;;;;22.00;11.77;;;;;;;8.69;67.50;101034.63;5033655;27;102311;-50
2022/03/08 09:31:52;;;;;;;15.27;11.73;;;;;;;8.70;67.40;101030.88;5032726;27;102196;-50
2022/03/08 09:34:19;;;;;;;13.60;10.77;;;;;;;8.70;67.54;101028.97;5043362;27;102479;-49
2022/03/08 09:36:45;;;;;;;14.10;10.57;;;;;;;8.69;67.69;101030.06;5040952;27;104006;-50
2022/03/08 09:39:12;;;;;;;16.35;11.55;;;;;;;8.70;67.90;101028.97;5026412;27;101948;-49
2022/03/08 09:41:40;;;;;;;12.68;10.82;;;;;;;8.71;67.82;101035.22;5034557;27;102119;-50
2022/03/08 09:44:13;;;;;;;13.48;11.10;;;;;;;8.72;67.80;101028.72;5027530;27;103383;-50
2022/03/08 09:46:40;;;;;;;12.90;11.15;;;;;;;8.72;67.70;101015.16;5033993;27;103886;-50
2022/03/08 09:49:07;;;;;;;13.30;10.65;;;;;;;8.72;66.98;101026.81;5025643;27;104220;-49
2022/03/08 09:51:37;;;;;;;18.17;11.70;;;;;;;8.73;67.39;101024.91;5026805;27;102384;-50
2022/03/08 09:54:04;;;;;;;;;;;;;;;8.72;67.15;101021.38;5032821;27;102012;-50
2022/03/08 09:56:33;;;;;;;12.32;10.32;;;;;;;8.73;67.67;101023.06;5029873;27;103873;-50
2022/03/08 09:59:00;;;;;;;13.70;10.75;;;;;;;8.73;67.50;101022.22;5032284;27;102024;-50
2022/03/08 10:01:28;;;;;;;12.98;10.90;;;;;;;8.72;66.96;101026.81;5042153;27;102449;-50
2022/03/08 10:03:55;;;;;;;12.88;10.13;;;;;;;8.73;67.28;101033.91;5043394;27;102260;-50
2022/03/08 10:06:22;;;;;;;14.35;10.38;;;;;;;8.73;67.01;101052.91;5036219;27;103894;-50
2022/03/08 10:08:48;;;;;;;13.48;10.48;;;;;;;8.74;67.82;101045.56;5034044;27;102144;-49
2022/03/08 10:11:17;;;;;;;11.35;9.73;;;;;;;8.73;67.90;101044.75;5025437;27;102313;-49
2022/03/08 10:13:59;;;;;;;14.02;10.43;;;;;;;8.73;67.32;101043.91;5024781;27;102111;-49
2022/03/08 10:16:41;;;;;;;12.25;10.13;;;;;;;8.73;67.25;101043.91;5031209;27;103889;-50
2022/03/08 10:19:10;;;;;;;13.43;10.80;;;;;;;8.72;67.70;101040.38;5030638;27;103831;-50
2022/03/08 10:21:39;;;;;;;13.48;10.30;;;;;;;8.73;68.03;101055.63;5029250;27;101994;-49
2022/03/08 10:24:15;;;;;;;12.13;10.35;;;;;;;8.73;67.72;101044.75;5021075;27;102714;-50
2022/03/08 10:26:46;;;;;;;14.50;10.30;;;;;;;8.74;67.37;101054.53;5030406;28;103903;-50
2022/03/08 10:29:13;;;;;;;11.93;10.00;;;;;;;8.74;68.11;101046.41;5032783;27;101883;-50
2022/03/08 10:31:46;;;;;;;12.20;9.50;;;;;;;8.73;68.07;101038.50;5030216;27;102075;-50
2022/03/08 10:34:16;;;;;;;11.10;9.90;;;;;;;8.73;67.91;101044.75;5032751;27;102750;-50
2022/03/08 10:36:58;;;;;;;12.48;10.25;;;;;;;8.74;67.98;101045.56;5030574;27;103798;-50
2022/03/08 10:39:25;;;;;;;13.35;9.75;;;;;;;8.74;67.63;101040.97;5030855;27;102235;-50
2022/03/08 10:41:53;;;;;;;12.43;10.32;;;;;;;8.73;67.69;101042.06;5031671;27;102395;-50
2022/03/08 10:44:31;;;;;;;12.13;10.05;;;;;;;8.73;67.26;101039.34;5032333;27;102785;-50
2022/03/08 10:47:01;;;;;;;12.38;9.43;;;;;;;8.74;68.07;101038.25;5029925;27;103784;-50
2022/03/08 10:49:28;;;;;;;12.95;9.70;;;;;;;8.74;67.26;101037.44;5032104;27;102447;-50
2022/03/08 10:52:03;;;;;;;11.23;9.52;;;;;;;8.74;67.66;101035.53;5030613;27;102509;-50
2022/03/08 10:54:31;;;;;;;11.82;9.82;;;;;;;8.73;68.17;101033.91;5026003;28;102614;-50
2022/03/08 10:56:58;;;;;;;11.90;10.27;;;;;;;8.73;67.82;101028.47;5030051;27;104145;-50
2022/03/08 10:59:24;;;;;;;12.38;10.77;;;;;;;8.73;67.20;101023.06;5031499;27;101984;-50
2022/03/08 11:01:51;;;;;;;12.65;10.10;;;;;;;8.73;67.65;101020.34;5034711;27;102478;-50
2022/03/08 11:04:21;;;;;;;11.23;9.95;;;;;;;8.73;67.88;101023.06;5034730;27;102379;-50
2022/03/08 11:06:53;;;;;;;13.43;11.95;;;;;;;8.74;67.84;101019.25;5029359;28;103882;-50
2022/03/08 11:09:21;;;;;;;13.27;11.35;;;;;;;8.74;68.15;101018.44;5031664;27;102481;-50
2022/03/08 11:11:48;;;;;;;13.40;11.63;;;;;;;8.73;67.45;101023.06;5033781;27;102313;-50